Time;durP1;ratioP1;P1;durP2;ratioP2;P2;SDS_P1;SDS_P2;PMS_P1;PMS_P2;Temp;Humidity;BMP_temperature;BMP_pressure;BME280_temperature;BME280_humidity;BME280_pressure;Samples;Min_cycle;Max_cycle;Signal;HPM_P1;HPM_P2
2022/10/04 00:02:19;;;;;;;29.02;10.40;;;;;;;;;;6162141;28;20174;-58
2022/10/04 00:05:24;;;;;;;32.97;10.50;;;;;;;;;;6160660;28;20043;-59
2022/10/04 00:08:36;;;;;;;36.05;11.05;;;;;;;;;;6160192;28;20046;-54
2022/10/04 00:11:42;;;;;;;30.10;9.63;;;;;;;;;;6160750;28;20628;-58
2022/10/04 00:14:43;;;;;;;28.35;10.00;;;;;;;;;;6163588;28;20593;-58
2022/10/04 00:17:44;;;;;;;32.47;11.10;;;;;;;;;;6162468;28;20058;-58
2022/10/04 00:20:52;;;;;;;35.22;11.25;;;;;;;;;;6159913;28;20046;-59
2022/10/04 00:24:09;;;;;;;31.30;10.95;;;;;;;;;;6161365;28;20055;-59
2022/10/04 00:27:25;;;;;;;30.77;10.18;;;;;;;;;;6161329;28;20089;-56
2022/10/04 00:30:37;;;;;;;24.10;9.27;;;;;;;;;;6158888;28;20050;-57
2022/10/04 00:33:57;;;;;;;23.92;9.48;;;;;;;;;;6158820;28;20137;-58
2022/10/04 00:36:58;;;;;;;33.10;10.98;;;;;;;;;;6158258;28;20333;-57
2022/10/04 00:39:59;;;;;;;31.50;10.02;;;;;;;;;;6161646;28;20046;-57
2022/10/04 00:43:07;;;;;;;35.75;10.90;;;;;;;;;;6161677;28;20740;-57
2022/10/04 00:46:17;;;;;;;35.63;10.15;;;;;;;;;;6161623;28;20101;-60
2022/10/04 00:49:22;;;;;;;28.35;9.65;;;;;;;;;;6161095;28;20037;-57
2022/10/04 00:52:27;;;;;;;22.73;9.07;;;;;;;;;;6161223;28;20138;-56
2022/10/04 00:55:44;;;;;;;28.90;8.65;;;;;;;;;;6160040;28;20094;-57
2022/10/04 00:58:56;;;;;;;26.50;8.60;;;;;;;;;;6161096;28;20085;-56
2022/10/04 01:02:20;;;;;;;27.40;8.75;;;;;;;;;;6165313;28;20043;-60
2022/10/04 01:05:43;;;;;;;25.33;8.57;;;;;;;;;;6166040;28;20054;-56
2022/10/04 01:08:53;;;;;;;27.77;8.70;;;;;;;;;;6166376;28;20039;-60
2022/10/04 01:12:13;;;;;;;26.17;9.55;;;;;;;;;;6162237;28;20141;-59
2022/10/04 01:15:32;;;;;;;24.60;8.98;;;;;;;;;;6164647;28;20042;-59
2022/10/04 01:18:34;;;;;;;34.25;8.48;;;;;;;;;;6162362;28;20447;-58
2022/10/04 01:21:37;;;;;;;30.20;9.55;;;;;;;;;;6162552;28;20156;-58
2022/10/04 01:24:40;;;;;;;29.65;10.07;;;;;;;;;;6164531;28;20043;-57
2022/10/04 01:27:42;;;;;;;26.45;9.10;;;;;;;;;;6165634;28;20053;-55
2022/10/04 01:30:43;;;;;;;31.65;9.10;;;;;;;;;;6165666;28;20462;-58
2022/10/04 01:33:45;;;;;;;23.92;9.63;;;;;;;;;;6163386;28;20082;-61
2022/10/04 01:36:47;;;;;;;27.60;9.43;;;;;;;;;;6164365;28;20535;-57
2022/10/04 01:39:48;;;;;;;31.48;8.25;;;;;;;;;;6166070;28;20046;-56
2022/10/04 01:42:53;;;;;;;28.17;8.30;;;;;;;;;;6162271;28;20182;-56
2022/10/04 01:46:01;;;;;;;23.10;8.30;;;;;;;;;;6165786;28;20059;-57
2022/10/04 01:49:11;;;;;;;24.10;7.75;;;;;;;;;;6164874;28;20067;-55
2022/10/04 01:52:21;;;;;;;28.63;8.50;;;;;;;;;;6164330;28;20039;-57
2022/10/04 01:55:29;;;;;;;23.38;7.47;;;;;;;;;;6159897;28;20525;-57
2022/10/04 01:58:40;;;;;;;31.95;9.00;;;;;;;;;;6164856;28;20466;-57
2022/10/04 02:01:57;;;;;;;28.05;7.40;;;;;;;;;;6164903;28;20050;-57
2022/10/04 02:04:58;;;;;;;31.40;8.40;;;;;;;;;;6164156;28;20063;-59
2022/10/04 02:08:05;;;;;;;29.45;7.85;;;;;;;;;;6163063;28;20146;-58
2022/10/04 02:11:06;;;;;;;30.17;8.27;;;;;;;;;;6163447;28;20039;-56
2022/10/04 02:14:17;;;;;;;27.58;8.00;;;;;;;;;;6161628;28;20053;-57
2022/10/04 02:17:41;;;;;;;37.17;8.77;;;;;;;;;;6160106;28;20761;-58
2022/10/04 02:20:43;;;;;;;22.15;7.78;;;;;;;;;;6162983;28;20081;-57
2022/10/04 02:23:45;;;;;;;22.00;7.63;;;;;;;;;;6163881;28;20061;-59
2022/10/04 02:26:50;;;;;;;20.70;6.05;;;;;;;;;;6161420;28;20054;-59
2022/10/04 02:29:51;;;;;;;19.30;6.88;;;;;;;;;;6160535;28;20113;-57
2022/10/04 02:32:58;;;;;;;23.85;6.72;;;;;;;;;;6164286;28;20043;-56
2022/10/04 02:35:59;;;;;;;20.08;6.57;;;;;;;;;;6163499;28;20038;-53
2022/10/04 02:39:10;;;;;;;18.10;6.10;;;;;;;;;;6162601;28;20474;-58
2022/10/04 02:42:38;;;;;;;23.48;9.13;;;;;;;;;;6161502;28;20324;-56
2022/10/04 02:45:42;;;;;;;30.08;9.15;;;;;;;;;;6161981;28;20146;-55
2022/10/04 02:48:47;;;;;;;26.35;8.93;;;;;;;;;;6161741;28;20128;-56
2022/10/04 02:52:04;;;;;;;27.98;8.90;;;;;;;;;;6161372;28;20169;-57
2022/10/04 02:55:22;;;;;;;29.48;8.77;;;;;;;;;;6163155;28;20137;-56
2022/10/04 02:58:24;;;;;;;26.00;9.05;;;;;;;;;;6163663;28;20055;-57
2022/10/04 03:01:26;;;;;;;;;;;;;;;;;;6163464;28;20545;-57
2022/10/04 03:04:30;;;;;;;31.55;9.50;;;;;;;;;;6161901;28;20743;-58
2022/10/04 03:07:35;;;;;;;25.13;8.38;;;;;;;;;;6162903;28;20521;-58
2022/10/04 03:10:37;;;;;;;36.60;9.77;;;;;;;;;;6162081;28;20468;-57
2022/10/04 03:13:40;;;;;;;27.67;8.30;;;;;;;;;;6160364;28;20779;-55
2022/10/04 03:16:43;;;;;;;30.70;8.80;;;;;;;;;;6161533;28;20481;-58
2022/10/04 03:19:47;;;;;;;24.55;9.00;;;;;;;;;;6161288;28;20129;-58
2022/10/04 03:22:52;;;;;;;29.27;8.70;;;;;;;;;;6161356;28;20078;-58
2022/10/04 03:26:02;;;;;;;31.20;9.95;;;;;;;;;;6158723;28;20154;-57
2022/10/04 03:29:09;;;;;;;29.73;8.57;;;;;;;;;;6161300;28;20483;-57
2022/10/04 03:32:13;;;;;;;29.58;8.88;;;;;;;;;;6162167;28;20065;-56
2022/10/04 03:35:27;;;;;;;25.98;8.57;;;;;;;;;;6162133;28;20161;-58
2022/10/04 03:38:33;;;;;;;27.90;8.57;;;;;;;;;;6159978;28;20142;-58
2022/10/04 03:41:38;;;;;;;26.73;9.45;;;;;;;;;;6162911;28;20676;-57
2022/10/04 03:44:40;;;;;;;34.15;9.07;;;;;;;;;;6161494;28;20108;-57
2022/10/04 03:47:47;;;;;;;27.50;8.77;;;;;;;;;;6164575;28;20138;-59
2022/10/04 03:50:48;;;;;;;26.23;8.73;;;;;;;;;;6165899;28;20051;-58
2022/10/04 03:53:53;;;;;;;28.33;8.15;;;;;;;;;;6165656;28;20058;-59
2022/10/04 03:56:55;;;;;;;25.35;8.38;;;;;;;;;;6167083;28;20495;-56
2022/10/04 03:59:56;;;;;;;25.20;8.07;;;;;;;;;;6165523;28;20483;-58
2022/10/04 04:03:04;;;;;;;25.58;8.40;;;;;;;;;;6161415;28;20046;-59
2022/10/04 04:06:14;;;;;;;27.65;9.18;;;;;;;;;;6161350;28;20058;-57
2022/10/04 04:09:26;;;;;;;24.90;8.48;;;;;;;;;;6159741;28;20043;-56
2022/10/04 04:12:37;;;;;;;25.00;9.32;;;;;;;;;;6162210;28;20050;-58
2022/10/04 04:15:42;;;;;;;26.67;8.98;;;;;;;;;;6161881;28;20070;-58
2022/10/04 04:18:44;;;;;;;30.42;9.88;;;;;;;;;;6161080;28;20634;-58
2022/10/04 04:21:46;;;;;;;30.88;9.38;;;;;;;;;;6160846;28;20058;-59
2022/10/04 04:24:48;;;;;;;29.20;9.20;;;;;;;;;;6159174;28;20227;-60
2022/10/04 04:27:49;;;;;;;;;;;;;;;;;;6158547;28;20047;-57
2022/10/04 04:30:54;;;;;;;28.92;8.32;;;;;;;;;;6161855;28;20270;-58
2022/10/04 04:33:59;;;;;;;23.05;7.93;;;;;;;;;;6160253;28;20104;-58
2022/10/04 04:37:02;;;;;;;28.73;8.45;;;;;;;;;;6164938;28;20039;-58
2022/10/04 04:40:23;;;;;;;29.50;8.27;;;;;;;;;;6165771;28;20051;-60
2022/10/04 04:43:26;;;;;;;21.52;7.40;;;;;;;;;;6163951;28;20047;-57
2022/10/04 04:46:27;;;;;;;;;;;;;;;;;;6162412;28;20095;-56
2022/10/04 04:49:30;;;;;;;27.42;7.40;;;;;;;;;;6166593;28;19925;-59
2022/10/04 04:52:31;;;;;;;22.42;7.47;;;;;;;;;;6162851;28;20051;-57
2022/10/04 04:55:37;;;;;;;18.53;7.27;;;;;;;;;;6164631;28;20046;-58
2022/10/04 04:58:42;;;;;;;17.98;6.30;;;;;;;;;;6165204;28;20354;-58
2022/10/04 05:01:45;;;;;;;21.83;7.32;;;;;;;;;;6164249;28;20160;-59
2022/10/04 05:04:49;;;;;;;46.75;8.05;;;;;;;;;;6163432;28;20055;-59
2022/10/04 05:08:22;;;;;;;18.92;6.85;;;;;;;;;;6163774;28;20603;-57
2022/10/04 05:11:28;;;;;;;20.10;7.20;;;;;;;;;;6170618;28;20047;-55
2022/10/04 05:14:30;;;;;;;22.40;6.72;;;;;;;;;;6165243;28;20550;-56
2022/10/04 05:17:33;;;;;;;23.88;8.35;;;;;;;;;;6171443;28;20101;-57
2022/10/04 05:20:34;;;;;;;24.85;7.43;;;;;;;;;;6176879;28;20136;-55
2022/10/04 05:23:34;;;;;;;19.85;6.75;;;;;;;;;;6171136;28;20054;-54
2022/10/04 05:26:35;;;;;;;21.45;7.32;;;;;;;;;;6173682;28;20102;-56
2022/10/04 05:29:50;;;;;;;20.52;6.88;;;;;;;;;;6169359;28;20051;-57
2022/10/04 05:33:06;;;;;;;20.15;7.20;;;;;;;;;;6169107;28;20085;-55
2022/10/04 05:36:08;;;;;;;22.33;7.60;;;;;;;;;;6158684;28;20059;-56
2022/10/04 05:39:42;;;;;;;25.00;7.55;;;;;;;;;;6170412;28;20137;-55
2022/10/04 05:42:45;;;;;;;21.60;6.47;;;;;;;;;;6165446;28;20051;-57
2022/10/04 05:45:46;;;;;;;24.58;6.75;;;;;;;;;;6169102;28;20074;-55
2022/10/04 05:48:52;;;;;;;17.75;6.30;;;;;;;;;;6178974;28;20077;-59
2022/10/04 05:51:59;;;;;;;23.63;6.85;;;;;;;;;;6168585;28;20209;-56
2022/10/04 05:55:16;;;;;;;25.05;6.10;;;;;;;;;;6171177;28;20050;-57
2022/10/04 05:58:37;;;;;;;23.42;6.68;;;;;;;;;;6169760;28;20125;-62
2022/10/04 06:02:03;;;;;;;21.02;6.97;;;;;;;;;;6168807;28;20050;-56
2022/10/04 06:05:20;;;;;;;23.88;8.13;;;;;;;;;;6168395;28;20117;-56
2022/10/04 06:08:20;;;;;;;19.10;6.93;;;;;;;;;;6167901;28;20131;-56
2022/10/04 06:11:24;;;;;;;21.55;7.55;;;;;;;;;;6167469;28;20415;-55
2022/10/04 06:14:40;;;;;;;24.20;6.75;;;;;;;;;;6170398;28;20174;-56
2022/10/04 06:17:40;;;;;;;22.80;7.25;;;;;;;;;;6168262;28;20050;-56
2022/10/04 06:20:50;;;;;;;22.63;7.72;;;;;;;;;;6168157;28;20087;-59
2022/10/04 06:23:59;;;;;;;24.52;7.68;;;;;;;;;;6169842;28;20065;-58
2022/10/04 06:27:05;;;;;;;26.88;7.53;;;;;;;;;;6177550;28;20035;-57
2022/10/04 06:30:15;;;;;;;26.63;7.45;;;;;;;;;;6170315;28;20133;-58
2022/10/04 06:33:53;;;;;;;26.98;7.47;;;;;;;;;;6169650;28;20041;-59
2022/10/04 06:37:08;;;;;;;22.63;6.95;;;;;;;;;;6168651;28;20359;-58
2022/10/04 06:40:28;;;;;;;22.73;7.28;;;;;;;;;;6166186;28;20506;-58
2022/10/04 06:43:46;;;;;;;19.65;7.82;;;;;;;;;;6166876;28;20077;-58
2022/10/04 06:47:19;;;;;;;23.55;6.97;;;;;;;;;;6169712;28;20062;-59
2022/10/04 06:50:32;;;;;;;24.83;7.47;;;;;;;;;;6159410;28;20602;-58
2022/10/04 06:54:04;;;;;;;28.15;7.97;;;;;;;;;;6165593;28;20135;-55
2022/10/04 06:57:31;;;;;;;23.77;8.25;;;;;;;;;;6167360;28;20047;-53
2022/10/04 07:00:55;;;;;;;23.33;8.10;;;;;;;;;;6167230;28;20138;-56
2022/10/04 07:04:16;;;;;;;34.97;9.98;;;;;;;;;;6167949;28;20276;-57
2022/10/04 07:07:38;;;;;;;22.27;7.43;;;;;;;;;;6159725;28;20093;-57
2022/10/04 07:10:48;;;;;;;22.67;7.65;;;;;;;;;;6167097;28;20070;-58
2022/10/04 07:13:52;;;;;;;25.83;8.75;;;;;;;;;;6167063;28;20049;-56
2022/10/04 07:17:02;;;;;;;28.92;7.97;;;;;;;;;;6168891;28;20141;-60
2022/10/04 07:20:05;;;;;;;27.83;7.13;;;;;;;;;;6164339;28;20066;-58
2022/10/04 07:23:14;;;;;;;32.42;8.25;;;;;;;;;;6169152;28;20481;-54
2022/10/04 07:26:51;;;;;;;27.83;8.30;;;;;;;;;;6168737;28;20050;-57
2022/10/04 07:29:57;;;;;;;23.30;7.70;;;;;;;;;;6166533;28;20049;-55
2022/10/04 07:32:58;;;;;;;25.52;7.88;;;;;;;;;;6164355;28;20057;-57
2022/10/04 07:36:10;;;;;;;30.42;8.20;;;;;;;;;;6165971;28;20557;-57
2022/10/04 07:39:46;;;;;;;23.48;8.32;;;;;;;;;;6165666;28;20074;-59
2022/10/04 07:42:53;;;;;;;22.17;7.60;;;;;;;;;;6166273;28;20137;-56
2022/10/04 07:46:04;;;;;;;30.60;8.75;;;;;;;;;;6166760;28;20090;-57
2022/10/04 07:49:16;;;;;;;54.20;11.98;;;;;;;;;;6167900;28;20047;-55
2022/10/04 07:52:35;;;;;;;32.92;9.63;;;;;;;;;;6168437;28;20062;-58
2022/10/04 07:55:58;;;;;;;30.02;8.02;;;;;;;;;;6168415;28;20145;-58
2022/10/04 07:59:14;;;;;;;22.92;7.38;;;;;;;;;;6166456;28;20066;-53
2022/10/04 08:02:39;;;;;;;29.08;9.13;;;;;;;;;;6167979;28;20526;-61
2022/10/04 08:05:53;;;;;;;36.97;10.48;;;;;;;;;;6168498;28;20069;-56
2022/10/04 08:09:00;;;;;;;47.47;10.98;;;;;;;;;;6167814;28;20518;-56
2022/10/04 08:12:16;;;;;;;34.50;8.43;;;;;;;;;;6166765;28;20066;-55
2022/10/04 08:15:33;;;;;;;25.75;7.40;;;;;;;;;;6168172;28;20054;-57
2022/10/04 08:18:56;;;;;;;23.45;6.97;;;;;;;;;;6168367;28;20062;-57
2022/10/04 08:22:12;;;;;;;22.63;6.65;;;;;;;;;;6166420;28;20178;-58
2022/10/04 08:25:26;;;;;;;28.55;8.23;;;;;;;;;;6166747;28;20055;-58
2022/10/04 08:32:24;;;;;;;20.10;6.28;;;;;;;;;;6168145;28;20178;-56
2022/10/04 08:35:35;;;;;;;24.65;7.07;;;;;;;;;;6156514;28;20133;-59
2022/10/04 08:38:48;;;;;;;20.63;6.07;;;;;;;;;;6166919;28;20050;-57
2022/10/04 08:42:00;;;;;;;15.13;5.07;;;;;;;;;;6166724;28;20134;-57
2022/10/04 08:45:20;;;;;;;16.63;5.30;;;;;;;;;;6177496;28;20123;-55
2022/10/04 08:49:06;;;;;;;14.45;4.50;;;;;;;;;;6183844;28;20363;-58
2022/10/04 08:52:24;;;;;;;16.15;4.18;;;;;;;;;;6090831;28;20056;-59
2022/10/04 08:56:00;;;;;;;14.90;4.35;;;;;;;;;;6189373;28;20161;-59
2022/10/04 08:59:22;;;;;;;17.13;5.40;;;;;;;;;;6170342;28;20054;-57
2022/10/04 09:02:57;;;;;;;16.38;5.95;;;;;;;;;;6172140;28;20104;-57
2022/10/04 09:06:12;;;;;;;14.93;4.82;;;;;;;;;;6179297;28;20050;-56
2022/10/04 09:09:50;;;;;;;13.00;4.53;;;;;;;;;;6180278;28;20061;-56
2022/10/04 09:13:23;;;;;;;16.73;5.70;;;;;;;;;;6156088;28;20141;-51
2022/10/04 09:16:43;;;;;;;22.42;5.60;;;;;;;;;;6166338;28;20569;-56
2022/10/04 09:20:03;;;;;;;13.30;4.35;;;;;;;;;;6168830;28;20469;-54
2022/10/04 09:23:33;;;;;;;15.07;4.75;;;;;;;;;;6172073;28;20141;-56
2022/10/04 09:27:00;;;;;;;15.05;4.53;;;;;;;;;;6168152;28;20170;-60
2022/10/04 09:30:01;;;;;;;13.90;4.43;;;;;;;;;;6172717;28;20081;-57
2022/10/04 09:33:20;;;;;;;14.85;4.68;;;;;;;;;;6193319;28;20042;-59
2022/10/04 09:36:29;;;;;;;13.57;5.55;;;;;;;;;;6195616;28;20081;-59
2022/10/04 09:40:05;;;;;;;13.70;4.40;;;;;;;;;;6192696;28;20049;-53
2022/10/04 09:43:34;;;;;;;10.35;4.95;;;;;;;;;;6181144;28;20143;-56
2022/10/04 09:46:50;;;;;;;14.50;4.60;;;;;;;;;;6169295;28;20785;-59
2022/10/04 09:50:30;;;;;;;12.70;3.97;;;;;;;;;;6169297;28;20087;-57
2022/10/04 09:53:45;;;;;;;12.40;3.83;;;;;;;;;;6168902;28;20062;-57
2022/10/04 09:57:21;;;;;;;11.65;3.97;;;;;;;;;;6169389;28;20137;-57
2022/10/04 10:00:39;;;;;;;13.65;4.05;;;;;;;;;;6134657;28;20138;-60
2022/10/04 10:04:17;;;;;;;12.75;4.05;;;;;;;;;;6169658;28;20039;-59
2022/10/04 10:07:21;;;;;;;14.00;4.05;;;;;;;;;;6170008;28;20069;-58
2022/10/04 10:14:17;;;;;;;14.95;3.92;;;;;;;;;;6169699;28;20054;-59
2022/10/04 10:17:38;;;;;;;9.73;3.22;;;;;;;;;;6168287;28;20070;-58
2022/10/04 10:20:52;;;;;;;11.65;3.65;;;;;;;;;;6169901;28;20042;-58
2022/10/04 10:23:59;;;;;;;14.80;3.95;;;;;;;;;;6169343;28;20134;-57
2022/10/04 10:27:28;;;;;;;9.27;3.40;;;;;;;;;;6169517;28;20057;-57
2022/10/04 10:30:38;;;;;;;13.25;3.53;;;;;;;;;;6168586;28;20491;-57
2022/10/04 10:33:44;;;;;;;11.82;3.88;;;;;;;;;;6169284;28;20065;-57
2022/10/04 10:37:05;;;;;;;10.82;3.80;;;;;;;;;;6169212;28;20109;-59
2022/10/04 10:40:33;;;;;;;11.93;3.63;;;;;;;;;;6170120;28;20095;-57
2022/10/04 10:44:06;;;;;;;14.18;4.18;;;;;;;;;;6163735;28;20046;-57
2022/10/04 10:47:32;;;;;;;14.48;4.22;;;;;;;;;;6168628;28;20101;-56
2022/10/04 10:50:57;;;;;;;11.88;3.20;;;;;;;;;;6169996;28;20054;-54
2022/10/04 10:54:35;;;;;;;13.35;3.95;;;;;;;;;;6169607;28;20042;-54
2022/10/04 10:58:14;;;;;;;10.77;3.30;;;;;;;;;;6169405;28;20201;-55
2022/10/04 11:01:23;;;;;;;9.80;2.58;;;;;;;;;;6168845;28;20384;-56
2022/10/04 11:04:48;;;;;;;11.15;3.40;;;;;;;;;;6168686;28;20149;-59
2022/10/04 11:07:54;;;;;;;8.18;3.20;;;;;;;;;;6166819;28;20813;-57
2022/10/04 11:11:32;;;;;;;13.02;3.58;;;;;;;;;;6164104;28;20054;-55
2022/10/04 11:14:52;;;;;;;16.58;3.28;;;;;;;;;;6157850;28;20534;-58
2022/10/04 11:17:58;;;;;;;14.20;4.45;;;;;;;;;;6159672;28;20141;-57
2022/10/04 11:21:26;;;;;;;14.88;4.00;;;;;;;;;;6156731;28;20118;-53
2022/10/04 11:24:45;;;;;;;15.30;4.25;;;;;;;;;;6157893;28;20050;-57
2022/10/04 11:27:52;;;;;;;11.88;3.85;;;;;;;;;;6159257;28;20053;-53
2022/10/04 11:31:07;;;;;;;7.80;3.40;;;;;;;;;;6156235;28;20109;-58
2022/10/04 11:34:45;;;;;;;9.30;3.28;;;;;;;;;;6158883;28;20055;-54
2022/10/04 11:38:13;;;;;;;10.13;3.05;;;;;;;;;;6158711;28;20726;-58
2022/10/04 11:41:38;;;;;;;10.55;3.10;;;;;;;;;;6156092;28;20054;-56
2022/10/04 11:45:04;;;;;;;11.60;2.97;;;;;;;;;;6159023;28;20055;-58
2022/10/04 11:48:14;;;;;;;12.15;2.72;;;;;;;;;;6154962;28;20054;-57
2022/10/04 11:51:46;;;;;;;12.70;3.35;;;;;;;;;;6153443;28;20083;-54
2022/10/04 11:55:24;;;;;;;11.05;4.50;;;;;;;;;;6157315;28;20050;-55
2022/10/04 11:58:43;;;;;;;11.05;3.25;;;;;;;;;;6155593;28;20074;-55
2022/10/04 12:02:21;;;;;;;10.98;3.67;;;;;;;;;;6152524;28;20059;-57
2022/10/04 12:05:37;;;;;;;9.25;3.30;;;;;;;;;;6157285;28;20141;-56
2022/10/04 12:09:04;;;;;;;7.35;3.10;;;;;;;;;;6158884;28;20098;-54
2022/10/04 12:12:36;;;;;;;9.95;3.28;;;;;;;;;;6157537;28;20134;-55
2022/10/04 12:16:07;;;;;;;9.55;3.15;;;;;;;;;;6157464;28;20101;-57
2022/10/04 12:19:43;;;;;;;8.82;2.80;;;;;;;;;;6153616;28;20120;-56
2022/10/04 12:23:04;;;;;;;8.57;2.75;;;;;;;;;;6136661;28;20066;-55
2022/10/04 12:26:42;;;;;;;9.02;2.90;;;;;;;;;;6155434;28;20240;-57
2022/10/04 12:30:03;;;;;;;11.23;2.85;;;;;;;;;;6158567;28;20058;-53
2022/10/04 12:33:30;;;;;;;10.18;2.70;;;;;;;;;;6157043;28;20090;-55
2022/10/04 12:36:40;;;;;;;12.27;3.15;;;;;;;;;;6157650;28;20039;-56
2022/10/04 12:39:52;;;;;;;6.07;2.28;;;;;;;;;;6155878;28;20263;-52
2022/10/04 12:43:26;;;;;;;8.35;2.45;;;;;;;;;;6156056;28;20494;-53
2022/10/04 12:46:55;;;;;;;6.63;2.40;;;;;;;;;;6153711;28;20062;-57
2022/10/04 12:50:37;;;;;;;11.48;3.10;;;;;;;;;;6159282;28;20054;-60
2022/10/04 12:53:48;;;;;;;10.15;2.97;;;;;;;;;;6155946;28;20150;-55
2022/10/04 12:57:03;;;;;;;11.10;2.80;;;;;;;;;;6157415;28;20043;-55
2022/10/04 13:00:15;;;;;;;9.32;3.00;;;;;;;;;;6159891;28;20053;-53
2022/10/04 13:03:48;;;;;;;11.95;3.38;;;;;;;;;;6158700;28;20589;-58
2022/10/04 13:06:59;;;;;;;9.93;3.97;;;;;;;;;;6154209;28;20061;-56
2022/10/04 13:10:23;;;;;;;9.07;2.70;;;;;;;;;;6160658;28;20077;-58
2022/10/04 13:13:51;;;;;;;7.60;2.60;;;;;;;;;;6160410;28;20055;-60
2022/10/04 13:17:11;;;;;;;6.63;2.72;;;;;;;;;;6153642;28;20058;-57
2022/10/04 13:20:28;;;;;;;9.23;2.55;;;;;;;;;;6160588;28;20047;-55
2022/10/04 13:23:46;;;;;;;10.35;3.53;;;;;;;;;;6156943;28;20043;-53
2022/10/04 13:27:02;;;;;;;12.00;3.55;;;;;;;;;;6159711;28;20054;-56
2022/10/04 13:30:15;;;;;;;6.82;2.97;;;;;;;;;;6161838;28;20523;-55
2022/10/04 13:33:29;;;;;;;9.93;3.03;;;;;;;;;;6158579;28;20125;-57
2022/10/04 13:36:45;;;;;;;10.63;3.40;;;;;;;;;;6159588;28;20055;-57
2022/10/04 13:40:06;;;;;;;10.85;2.65;;;;;;;;;;6155306;28;20503;-54
2022/10/04 13:43:18;;;;;;;10.25;2.88;;;;;;;;;;6158142;28;20169;-56
2022/10/04 13:46:44;;;;;;;9.00;2.83;;;;;;;;;;6160397;28;20430;-56
2022/10/04 13:50:12;;;;;;;8.35;3.08;;;;;;;;;;6160278;28;20053;-59
2022/10/04 13:57:14;;;;;;;11.15;4.03;;;;;;;;;;6161391;28;20137;-55
2022/10/04 14:01:03;;;;;;;12.73;3.78;;;;;;;;;;6161691;28;20054;-58
2022/10/04 14:04:42;;;;;;;8.95;3.30;;;;;;;;;;6158895;28;20836;-53
2022/10/04 14:08:09;;;;;;;12.75;3.20;;;;;;;;;;6158592;28;20621;-61
2022/10/04 14:11:32;;;;;;;15.27;3.67;;;;;;;;;;6146923;28;20042;-62
2022/10/04 14:15:27;;;;;;;13.70;3.13;;;;;;;;;;6157956;28;20398;-62
2022/10/04 14:18:36;;;;;;;9.00;2.97;;;;;;;;;;6134435;28;20502;-62
2022/10/04 14:21:58;;;;;;;12.32;3.25;;;;;;;;;;6157486;28;20142;-64
2022/10/04 14:25:37;;;;;;;11.20;3.25;;;;;;;;;;6159696;28;20057;-62
2022/10/04 14:28:59;;;;;;;9.20;3.63;;;;;;;;;;6158088;28;20054;-60
2022/10/04 14:32:30;;;;;;;9.40;3.30;;;;;;;;;;6158690;28;20140;-56
2022/10/04 14:35:59;;;;;;;15.83;3.77;;;;;;;;;;6158850;28;20101;-56
2022/10/04 14:39:02;;;;;;;11.32;3.28;;;;;;;;;;6160551;28;20065;-57
2022/10/04 14:42:08;;;;;;;9.40;3.08;;;;;;;;;;6158371;28;20042;-58
2022/10/04 14:45:26;;;;;;;10.85;3.25;;;;;;;;;;6159590;28;20066;-56
2022/10/04 14:48:52;;;;;;;14.77;3.92;;;;;;;;;;6160258;28;20573;-58
2022/10/04 14:52:47;;;;;;;11.38;3.67;;;;;;;;;;6157910;28;20051;-58
2022/10/04 14:56:25;;;;;;;7.05;3.20;;;;;;;;;;6130981;28;20150;-59
2022/10/04 14:59:34;;;;;;;24.30;5.00;;;;;;;;;;6150603;28;20074;-61
2022/10/04 15:03:12;;;;;;;14.98;3.70;;;;;;;;;;6154955;28;20482;-59
2022/10/04 15:06:33;;;;;;;9.13;3.58;;;;;;;;;;6131757;28;20090;-57
2022/10/04 15:09:53;;;;;;;12.05;3.83;;;;;;;;;;6159315;28;20145;-57
2022/10/04 15:13:02;;;;;;;9.05;3.58;;;;;;;;;;6155400;28;20050;-60
2022/10/04 15:16:11;;;;;;;10.00;3.40;;;;;;;;;;6158459;28;20050;-59
2022/10/04 15:19:18;;;;;;;10.25;3.88;;;;;;;;;;6159030;28;20137;-58
2022/10/04 15:22:30;;;;;;;11.90;4.03;;;;;;;;;;6157357;28;20055;-58
2022/10/04 15:25:45;;;;;;;11.73;3.85;;;;;;;;;;6157589;28;20066;-57
2022/10/04 15:28:48;;;;;;;8.30;3.08;;;;;;;;;;6157385;28;20069;-53
2022/10/04 15:32:26;;;;;;;7.82;3.28;;;;;;;;;;6154845;28;20082;-58
2022/10/04 15:35:39;;;;;;;12.25;4.20;;;;;;;;;;6157870;28;20274;-58
2022/10/04 15:39:00;;;;;;;16.40;4.63;;;;;;;;;;6158564;28;20051;-57
2022/10/04 15:42:19;;;;;;;18.42;4.70;;;;;;;;;;6156562;28;20070;-57
2022/10/04 15:45:55;;;;;;;11.43;4.55;;;;;;;;;;6158453;28;20055;-55
2022/10/04 15:49:07;;;;;;;11.15;4.60;;;;;;;;;;6156450;28;20069;-56
2022/10/04 15:52:39;;;;;;;8.82;4.07;;;;;;;;;;6155587;28;20061;-54
2022/10/04 15:56:00;;;;;;;20.50;4.45;;;;;;;;;;6157878;28;20061;-52
2022/10/04 15:59:41;;;;;;;13.50;4.05;;;;;;;;;;6157949;28;20082;-54
2022/10/04 16:03:03;;;;;;;15.60;4.53;;;;;;;;;;6157233;28;20982;-54
2022/10/04 16:06:15;;;;;;;16.67;4.83;;;;;;;;;;6158862;28;20061;-56
2022/10/04 16:09:37;;;;;;;14.52;5.40;;;;;;;;;;6158094;28;20038;-52
2022/10/04 16:13:00;;;;;;;18.17;6.28;;;;;;;;;;6156230;28;20458;-57
2022/10/04 16:16:24;;;;;;;17.70;5.95;;;;;;;;;;6158213;28;20141;-56
2022/10/04 16:19:58;;;;;;;14.75;5.10;;;;;;;;;;6158960;28;20066;-52
2022/10/04 16:23:26;;;;;;;17.42;6.47;;;;;;;;;;6133886;28;20472;-56
2022/10/04 16:26:32;;;;;;;15.13;4.85;;;;;;;;;;6158900;28;20154;-55
2022/10/04 16:29:52;;;;;;;13.98;4.90;;;;;;;;;;6157946;28;20057;-55
2022/10/04 16:33:31;;;;;;;20.17;6.80;;;;;;;;;;6160269;28;20057;-58
2022/10/04 16:36:47;;;;;;;30.67;9.68;;;;;;;;;;6159211;28;20125;-55
2022/10/04 16:40:14;;;;;;;35.65;11.18;;;;;;;;;;6164325;28;20049;-55
2022/10/04 16:43:14;;;;;;;34.85;11.32;;;;;;;;;;6144685;28;20134;-56
2022/10/04 16:46:14;;;;;;;41.78;13.32;;;;;;;;;;6160787;28;20066;-55
2022/10/04 16:49:27;;;;;;;47.70;13.90;;;;;;;;;;6163199;28;20047;-51
2022/10/04 16:52:33;;;;;;;36.05;11.50;;;;;;;;;;6160722;28;20066;-54
2022/10/04 16:55:52;;;;;;;32.80;11.20;;;;;;;;;;6160161;28;20149;-52
2022/10/04 16:59:04;;;;;;;38.65;13.00;;;;;;;;;;6162723;28;20565;-57
2022/10/04 17:02:14;;;;;;;40.33;13.25;;;;;;;;;;6159196;28;20125;-51
2022/10/04 17:05:32;;;;;;;45.47;14.02;;;;;;;;;;6159835;28;20054;-54
2022/10/04 17:09:14;;;;;;;46.13;16.00;;;;;;;;;;6159051;28;20159;-56
2022/10/04 17:12:20;;;;;;;49.63;17.02;;;;;;;;;;6159156;28;20434;-55
2022/10/04 17:15:27;;;;;;;53.38;17.48;;;;;;;;;;6162062;28;20049;-56
2022/10/04 17:18:46;;;;;;;61.60;22.58;;;;;;;;;;6161271;28;20829;-56
2022/10/04 17:22:05;;;;;;;48.45;17.15;;;;;;;;;;6159660;28;20568;-51
2022/10/04 17:25:41;;;;;;;53.33;18.38;;;;;;;;;;6162157;28;20146;-55
2022/10/04 17:28:55;;;;;;;49.17;16.40;;;;;;;;;;6161498;28;20630;-55
2022/10/04 17:32:02;;;;;;;42.00;14.18;;;;;;;;;;6159762;28;20047;-55
2022/10/04 17:35:14;;;;;;;46.80;16.60;;;;;;;;;;6145071;28;20131;-57
2022/10/04 17:38:24;;;;;;;54.33;18.17;;;;;;;;;;6160780;28;20039;-55
2022/10/04 17:42:00;;;;;;;55.78;18.90;;;;;;;;;;6159413;28;20138;-53
2022/10/04 17:45:19;;;;;;;62.83;22.30;;;;;;;;;;6161632;28;20046;-53
2022/10/04 17:55:52;;;;;;;62.60;22.33;;;;;;;;;;6136756;28;20049;-54
2022/10/04 17:58:55;;;;;;;66.05;21.75;;;;;;;;;;6160967;28;20454;-53
2022/10/04 18:02:08;;;;;;;66.32;24.10;;;;;;;;;;6159852;28;20057;-53
2022/10/04 18:05:17;;;;;;;72.57;25.70;;;;;;;;;;6158944;28;20630;-50
2022/10/04 18:08:40;;;;;;;76.45;28.70;;;;;;;;;;6160274;28;20526;-52
2022/10/04 18:11:46;;;;;;;84.35;32.45;;;;;;;;;;6159372;28;20085;-53
2022/10/04 18:14:57;;;;;;;95.38;34.25;;;;;;;;;;6157470;28;20149;-55
2022/10/04 18:18:26;;;;;;;88.13;33.17;;;;;;;;;;6153700;28;20051;-56
2022/10/04 18:21:30;;;;;;;86.47;34.42;;;;;;;;;;6151087;28;20051;-53
2022/10/04 18:24:30;;;;;;;70.75;27.67;;;;;;;;;;6153705;28;20102;-56
2022/10/04 18:27:31;;;;;;;72.03;27.15;;;;;;;;;;6156135;28;20050;-54
2022/10/04 18:30:47;;;;;;;84.60;27.33;;;;;;;;;;6151795;28;20134;-55
2022/10/04 18:33:50;;;;;;;64.13;24.13;;;;;;;;;;6152401;28;20046;-52
2022/10/04 18:37:18;;;;;;;76.07;25.17;;;;;;;;;;6154185;28;20604;-53
2022/10/04 18:40:31;;;;;;;67.63;25.80;;;;;;;;;;6154797;28;20458;-56
2022/10/04 18:43:34;;;;;;;;;;;;;;;;;;6152557;28;20514;-51
2022/10/04 18:46:40;;;;;;;95.88;38.10;;;;;;;;;;6154297;28;19930;-56
2022/10/04 18:49:49;;;;;;;76.03;32.30;;;;;;;;;;6153004;28;20046;-56
2022/10/04 18:53:22;;;;;;;71.93;27.65;;;;;;;;;;6150679;28;20142;-54
2022/10/04 18:56:23;;;;;;;76.93;30.08;;;;;;;;;;6119388;28;20443;-55
2022/10/04 19:03:05;;;;;;;82.03;34.58;;;;;;;;;;6157922;28;20574;-52
2022/10/04 19:06:13;;;;;;;68.35;27.05;;;;;;;;;;6158780;28;20042;-53
2022/10/04 19:09:56;;;;;;;62.35;24.40;;;;;;;;;;6158001;28;20138;-52
2022/10/04 19:13:17;;;;;;;68.43;27.50;;;;;;;;;;6130669;28;20197;-51
2022/10/04 19:16:56;;;;;;;73.70;28.45;;;;;;;;;;6159833;28;20082;-53
2022/10/04 19:20:15;;;;;;;84.03;30.90;;;;;;;;;;6150414;28;20614;-53
2022/10/04 19:23:41;;;;;;;79.22;30.05;;;;;;;;;;6156190;28;20129;-54
2022/10/04 19:26:48;;;;;;;71.90;27.33;;;;;;;;;;6157328;28;20178;-52
2022/10/04 19:29:50;;;;;;;69.95;26.70;;;;;;;;;;6159935;28;20047;-56
2022/10/04 19:32:59;;;;;;;69.35;27.17;;;;;;;;;;6157542;28;20057;-54
2022/10/04 19:36:06;;;;;;;84.00;31.17;;;;;;;;;;6158268;28;20042;-54
2022/10/04 19:39:40;;;;;;;77.32;27.90;;;;;;;;;;6158986;28;20117;-52